Time;durP1;ratioP1;P1;durP2;ratioP2;P2;SDS_P1;SDS_P2;PMS_P1;PMS_P2;Temp;Humidity;BMP_temperature;BMP_pressure;BME280_temperature;BME280_humidity;BME280_pressure;Samples;Min_cycle;Max_cycle;Signal;HPM_P1;HPM_P2
2024/03/15 00:01:33;;;;;;;7.97;2.77;;;;;;;9.45;100.00;100528.69;5018923;28;20189;-69
2024/03/15 00:04:02;;;;;;;5.57;3.30;;;;;;;9.36;100.00;100525.34;5015361;28;20508;-70
2024/03/15 00:06:31;;;;;;;6.20;3.47;;;;;;;9.42;100.00;100511.06;5017789;28;20940;-69
2024/03/15 00:09:00;;;;;;;7.07;4.50;;;;;;;9.47;100.00;100521.25;5015273;28;20455;-70
2024/03/15 00:11:30;;;;;;;5.93;3.70;;;;;;;9.46;100.00;100519.56;5017817;28;20431;-69
2024/03/15 00:13:59;;;;;;;3.57;2.53;;;;;;;9.42;100.00;100512.91;5009182;28;20197;-70
2024/03/15 00:16:28;;;;;;;4.73;3.67;;;;;;;9.55;100.00;100515.63;5032049;28;20959;-69
2024/03/15 00:18:58;;;;;;;5.27;4.07;;;;;;;9.49;100.00;100505.63;5017663;28;20452;-69
2024/03/15 00:21:27;;;;;;;9.63;4.37;;;;;;;9.47;100.00;100507.72;5019123;28;20463;-68
2024/03/15 00:23:56;;;;;;;5.93;4.13;;;;;;;9.49;100.00;100511.03;5017884;28;20428;-69
2024/03/15 00:26:25;;;;;;;4.27;2.80;;;;;;;9.37;100.00;100499.19;5018078;28;20436;-71
2024/03/15 00:28:58;;;;;;;6.20;3.07;;;;;;;9.37;100.00;100504.59;5011436;28;20991;-69
2024/03/15 00:31:27;;;;;;;7.13;3.85;;;;;;;9.44;100.00;100494.66;5016791;28;20928;-69
2024/03/15 00:33:57;;;;;;;4.83;4.20;;;;;;;9.44;100.00;100494.66;5016986;28;20189;-69
2024/03/15 00:36:27;;;;;;;4.60;3.20;;;;;;;9.43;100.00;100493.81;5017348;28;20444;-69
2024/03/15 00:38:56;;;;;;;8.43;3.58;;;;;;;9.49;100.00;100486.75;5027591;28;20451;-70
2024/03/15 00:41:25;;;;;;;6.30;4.70;;;;;;;9.60;100.00;100486.13;5028772;28;20201;-69
2024/03/15 00:43:54;;;;;;;6.83;3.90;;;;;;;9.51;100.00;100485.50;5000184;28;20441;-68
2024/03/15 00:46:23;;;;;;;10.40;4.63;;;;;;;9.51;100.00;100479.28;5010152;28;20478;-71
2024/03/15 00:48:53;;;;;;;6.30;4.60;;;;;;;9.57;100.00;100478.47;5016786;28;20447;-70
2024/03/15 00:51:22;;;;;;;7.15;4.85;;;;;;;9.60;100.00;100464.53;5026437;28;20431;-70
2024/03/15 00:53:51;;;;;;;3.77;3.43;;;;;;;9.55;100.00;100475.13;5016907;28;20230;-70
2024/03/15 00:56:20;;;;;;;8.63;5.43;;;;;;;9.57;100.00;100473.91;5016944;28;20399;-71
2024/03/15 00:58:50;;;;;;;7.90;3.67;;;;;;;9.45;100.00;100469.28;5016787;28;20285;-70
2024/03/15 01:01:19;;;;;;;5.70;4.20;;;;;;;9.46;100.00;100465.56;5016293;28;20205;-69
2024/03/15 01:03:49;;;;;;;5.77;2.70;;;;;;;9.53;100.00;100461.00;5017365;28;20432;-68
2024/03/15 01:06:18;;;;;;;7.13;4.50;;;;;;;9.51;100.00;100469.31;5013374;28;20433;-70
2024/03/15 01:08:47;;;;;;;6.72;3.50;;;;;;;9.56;100.00;100456.00;5016481;28;20197;-70
2024/03/15 01:11:16;;;;;;;4.60;3.33;;;;;;;9.50;100.00;100456.00;5005788;28;20677;-70
2024/03/15 01:13:45;;;;;;;2.97;2.10;;;;;;;9.56;100.00;100444.38;5015789;28;20781;-70
2024/03/15 01:16:14;;;;;;;6.72;3.55;;;;;;;9.46;100.00;100450.19;5016005;28;20429;-70
2024/03/15 01:18:43;;;;;;;10.17;3.70;;;;;;;9.49;100.00;100436.25;5010538;28;20190;-70
2024/03/15 01:21:12;;;;;;;8.40;4.50;;;;;;;9.49;100.00;100435.41;5016819;28;20894;-70
2024/03/15 01:23:40;;;;;;;6.53;2.80;;;;;;;9.58;100.00;100436.91;5017239;28;20435;-69
2024/03/15 01:26:09;;;;;;;7.88;5.30;;;;;;;9.53;100.00;100439.41;5038540;28;20435;-70
2024/03/15 01:28:39;;;;;;;5.40;4.37;;;;;;;9.54;100.00;100432.94;5018490;28;20596;-69
2024/03/15 01:31:08;;;;;;;5.90;3.03;;;;;;;9.49;100.00;100433.56;5016635;28;20402;-70
2024/03/15 01:33:37;;;;;;;6.88;3.97;;;;;;;9.34;100.00;100434.81;5017023;28;20515;-69
2024/03/15 01:36:06;;;;;;;9.85;4.78;;;;;;;9.35;100.00;100436.44;5010672;28;20708;-69
2024/03/15 01:38:34;;;;;;;7.72;3.75;;;;;;;9.49;100.00;100438.13;5015586;28;20243;-70
2024/03/15 01:41:02;;;;;;;4.90;3.22;;;;;;;9.35;100.00;100436.44;5015538;28;20213;-70
2024/03/15 01:43:32;;;;;;;5.45;4.65;;;;;;;9.27;100.00;100429.38;5009987;28;20206;-70
2024/03/15 01:46:01;;;;;;;5.18;4.63;;;;;;;9.28;100.00;100424.81;5019632;28;20220;-70
2024/03/15 01:48:30;;;;;;;6.50;4.05;;;;;;;9.38;100.00;100425.25;5015610;28;20203;-69
2024/03/15 01:50:59;;;;;;;4.47;2.47;;;;;;;9.36;100.00;100416.50;5012725;28;20196;-70
2024/03/15 01:53:28;;;;;;;3.83;2.70;;;;;;;9.25;100.00;100423.34;5016185;28;20420;-69
2024/03/15 01:55:57;;;;;;;7.45;4.85;;;;;;;9.21;100.00;100430.19;5011122;28;20271;-70
2024/03/15 01:58:26;;;;;;;9.63;3.75;;;;;;;9.21;100.00;100424.78;5028603;28;20201;-69
2024/03/15 02:00:56;;;;;;;8.70;5.15;;;;;;;9.18;100.00;100429.78;5015788;28;20212;-70
2024/03/15 02:03:28;;;;;;;13.80;5.00;;;;;;;9.12;100.00;100421.44;5014305;28;20700;-70
2024/03/15 02:05:57;;;;;;;8.27;4.72;;;;;;;9.07;100.00;100426.63;5012474;28;20193;-69
2024/03/15 02:08:26;;;;;;;7.07;5.53;;;;;;;9.05;100.00;100420.59;5014115;28;20197;-68
2024/03/15 02:10:55;;;;;;;8.00;4.05;;;;;;;9.04;100.00;100416.25;5015730;28;20283;-71
2024/03/15 02:13:25;;;;;;;7.85;4.38;;;;;;;9.11;100.00;100421.66;5013406;28;20208;-69
2024/03/15 02:15:54;;;;;;;8.75;4.93;;;;;;;9.15;100.00;100415.63;5014776;28;20194;-69
2024/03/15 02:18:23;;;;;;;8.10;4.43;;;;;;;9.01;100.00;100411.25;4999150;28;20200;-70
2024/03/15 02:20:52;;;;;;;5.03;3.22;;;;;;;8.93;100.00;100411.44;5014984;28;20213;-70
2024/03/15 02:23:21;;;;;;;4.18;2.67;;;;;;;8.90;100.00;100406.47;5015381;28;20201;-69
2024/03/15 02:25:50;;;;;;;7.85;3.83;;;;;;;9.05;100.00;100409.00;5010357;28;20208;-69
2024/03/15 02:28:22;;;;;;;6.13;4.03;;;;;;;9.05;100.00;100409.00;5016021;28;20276;-69
2024/03/15 02:30:51;;;;;;;8.02;5.05;;;;;;;9.12;100.00;100402.56;5015301;28;20271;-69
2024/03/15 02:33:20;;;;;;;7.22;3.55;;;;;;;9.08;100.00;100401.31;5015332;28;20236;-69
2024/03/15 02:35:50;;;;;;;6.57;5.18;;;;;;;9.15;100.00;100404.00;5015565;28;20189;-69
2024/03/15 02:38:19;;;;;;;8.85;3.70;;;;;;;9.09;100.00;100400.28;5016178;28;20212;-70
2024/03/15 02:40:48;;;;;;;7.90;4.70;;;;;;;9.07;100.00;100399.63;5019484;28;20213;-70
2024/03/15 02:43:17;;;;;;;10.65;4.97;;;;;;;8.94;100.00;100391.53;5018065;28;20731;-69
2024/03/15 02:45:46;;;;;;;6.05;3.97;;;;;;;8.92;100.00;100396.28;5016405;28;20189;-70
2024/03/15 02:48:15;;;;;;;14.02;5.80;;;;;;;8.85;100.00;100398.13;5018954;28;20220;-70
2024/03/15 02:50:44;;;;;;;11.18;5.80;;;;;;;8.87;100.00;100396.06;5019380;28;20616;-70
2024/03/15 02:53:13;;;;;;;6.78;4.32;;;;;;;8.80;100.00;100397.06;5012827;28;20290;-68
2024/03/15 02:55:42;;;;;;;11.63;4.05;;;;;;;9.01;100.00;100392.34;5019442;28;20193;-68
2024/03/15 02:58:12;;;;;;;8.38;5.55;;;;;;;9.12;100.00;100386.38;5012183;28;20189;-68
2024/03/15 03:00:41;;;;;;;9.77;5.75;;;;;;;9.04;100.00;100397.34;5015815;28;20224;-68
2024/03/15 03:03:11;;;;;;;5.20;4.20;;;;;;;8.90;100.00;100382.19;5014354;28;20561;-69
2024/03/15 03:05:40;;;;;;;6.28;4.05;;;;;;;9.02;100.00;100390.50;5015597;28;20649;-69
2024/03/15 03:08:09;;;;;;;7.43;4.68;;;;;;;8.83;100.00;100384.00;5013244;28;20225;-69
2024/03/15 03:10:38;;;;;;;8.85;5.93;;;;;;;8.84;100.00;100382.97;5013671;28;20217;-70
2024/03/15 03:13:07;;;;;;;7.70;4.82;;;;;;;8.82;100.00;100387.72;5013633;28;20617;-67
2024/03/15 03:15:36;;;;;;;11.88;5.32;;;;;;;8.92;100.00;100388.19;5016201;28;20193;-70
2024/03/15 03:18:05;;;;;;;8.90;6.43;;;;;;;9.00;100.00;100384.47;5016086;28;20690;-69
2024/03/15 03:20:35;;;;;;;6.13;4.82;;;;;;;8.84;100.00;100384.84;4997568;28;20221;-69
2024/03/15 03:23:04;;;;;;;13.45;5.53;;;;;;;8.86;100.00;100383.59;5019178;28;20205;-70
2024/03/15 03:25:33;;;;;;;6.80;3.65;;;;;;;8.95;100.00;100374.31;5015778;28;20197;-69
2024/03/15 03:28:02;;;;;;;5.63;3.83;;;;;;;8.87;100.00;100373.63;5025061;28;20247;-68
2024/03/15 03:30:31;;;;;;;6.68;3.22;;;;;;;8.78;100.00;100375.69;5027382;28;20228;-69
2024/03/15 03:33:01;;;;;;;7.30;5.15;;;;;;;8.90;100.00;100375.94;5020317;28;20213;-69
2024/03/15 03:35:30;;;;;;;6.90;5.35;;;;;;;8.85;100.00;100375.72;5020448;28;20189;-68
2024/03/15 03:37:59;;;;;;;14.43;5.97;;;;;;;8.82;100.00;100371.53;5019901;28;20277;-70
2024/03/15 03:40:28;;;;;;;4.75;3.58;;;;;;;8.93;100.00;100373.66;5021037;28;20221;-69
2024/03/15 03:42:57;;;;;;;5.75;5.25;;;;;;;9.02;100.00;100364.34;5017338;28;20217;-70
2024/03/15 03:45:27;;;;;;;9.88;5.25;;;;;;;9.09;100.00;100359.78;5022055;28;20613;-68
2024/03/15 03:47:57;;;;;;;5.77;3.63;;;;;;;8.95;100.00;100365.38;5018076;28;20203;-69
2024/03/15 03:50:26;;;;;;;7.60;4.43;;;;;;;8.97;100.00;100352.50;5020391;28;20459;-70
2024/03/15 03:52:55;;;;;;;9.63;4.88;;;;;;;8.97;100.00;100353.31;5017963;28;20186;-70
2024/03/15 03:55:25;;;;;;;12.65;5.30;;;;;;;8.95;100.00;100350.00;5028524;28;20207;-69
2024/03/15 03:57:55;;;;;;;7.20;5.13;;;;;;;8.79;100.00;100350.38;5028405;28;20194;-71
2024/03/15 04:00:24;;;;;;;10.50;6.10;;;;;;;8.79;100.00;100344.97;5021119;28;20576;-70
2024/03/15 04:02:54;;;;;;;12.18;4.35;;;;;;;8.87;100.00;100342.09;5017900;28;20209;-69
2024/03/15 04:05:23;;;;;;;8.25;4.43;;;;;;;8.77;100.00;100347.03;5042471;28;20197;-69
2024/03/15 04:07:54;;;;;;;8.15;5.18;;;;;;;8.89;100.00;100345.44;5019425;28;20193;-69
2024/03/15 04:10:23;;;;;;;7.07;4.85;;;;;;;8.90;100.00;100340.88;5016850;28;20226;-70
2024/03/15 04:12:54;;;;;;;9.35;6.20;;;;;;;8.86;100.00;100340.41;5017222;28;20182;-69
2024/03/15 04:15:23;;;;;;;8.75;4.45;;;;;;;8.81;100.00;100348.28;5018812;28;20750;-69
2024/03/15 04:18:00;;;;;;;5.57;4.35;;;;;;;8.84;100.00;100347.91;5020866;28;20197;-69
2024/03/15 04:20:29;;;;;;;8.77;4.40;;;;;;;8.85;100.00;100333.38;5015879;28;20214;-70
2024/03/15 04:22:58;;;;;;;7.30;4.30;;;;;;;8.82;100.00;100333.78;5019851;28;20198;-70
2024/03/15 04:25:28;;;;;;;10.00;4.82;;;;;;;8.93;100.00;100335.03;5015291;28;20251;-69
2024/03/15 04:27:56;;;;;;;10.80;5.63;;;;;;;8.82;100.00;100333.78;5017997;28;20190;-70
2024/03/15 04:30:25;;;;;;;17.70;5.75;;;;;;;8.80;100.00;100335.88;5025698;28;20244;-70
2024/03/15 04:32:55;;;;;;;4.70;2.90;;;;;;;9.01;100.00;100343.78;5018529;28;20273;-69
2024/03/15 04:35:27;;;;;;;6.13;4.55;;;;;;;9.04;100.00;100339.84;5017218;28;20232;-68
2024/03/15 04:37:57;;;;;;;10.35;6.05;;;;;;;8.96;100.00;100332.75;5002372;28;20205;-70
2024/03/15 04:40:28;;;;;;;8.82;4.03;;;;;;;8.90;100.00;100336.31;5007233;28;20574;-71
2024/03/15 04:42:58;;;;;;;11.95;7.07;;;;;;;8.88;100.00;100332.97;5019275;28;20272;-71
2024/03/15 04:45:27;;;;;;;6.03;5.47;;;;;;;8.85;100.00;100338.78;5023891;28;20201;-68
2024/03/15 04:47:56;;;;;;;5.85;4.50;;;;;;;8.86;100.00;100329.63;5019226;28;20432;-69
2024/03/15 04:50:25;;;;;;;8.60;6.63;;;;;;;8.85;100.00;100322.59;5022098;28;20221;-69
2024/03/15 04:52:54;;;;;;;9.57;5.60;;;;;;;8.91;100.00;100324.44;5019099;28;20201;-68
2024/03/15 04:55:24;;;;;;;9.68;5.13;;;;;;;8.87;100.00;100330.47;5022724;28;20197;-70
2024/03/15 04:57:55;;;;;;;15.15;7.07;;;;;;;8.76;100.00;100331.91;5016204;28;20611;-70
2024/03/15 05:00:25;;;;;;;7.45;5.35;;;;;;;8.76;100.00;100333.78;5017411;28;20741;-70
2024/03/15 05:02:54;;;;;;;10.82;4.18;;;;;;;8.62;100.00;100339.13;5012936;28;20267;-69
2024/03/15 05:05:27;;;;;;;7.13;4.65;;;;;;;8.64;100.00;100339.75;5013718;28;20189;-71
2024/03/15 05:07:56;;;;;;;10.68;4.38;;;;;;;8.63;100.00;100334.56;5016985;28;20272;-70
2024/03/15 05:10:24;;;;;;;5.82;4.70;;;;;;;8.62;100.00;100324.78;5032854;28;20213;-69
2024/03/15 05:12:54;;;;;;;12.02;4.85;;;;;;;8.54;100.00;100333.06;5020211;28;20193;-67
2024/03/15 05:15:23;;;;;;;5.68;4.68;;;;;;;8.50;100.00;100329.13;5028636;28;20188;-68
2024/03/15 05:17:52;;;;;;;6.15;4.32;;;;;;;8.58;100.00;100328.94;5018615;28;20189;-68
2024/03/15 05:20:20;;;;;;;7.25;3.70;;;;;;;8.51;100.00;100331.63;5019922;28;20209;-70
2024/03/15 05:22:49;;;;;;;9.75;5.93;;;;;;;8.65;100.00;100324.41;5019502;28;20209;-70
2024/03/15 05:25:18;;;;;;;12.45;4.63;;;;;;;8.60;100.00;100325.03;5018494;28;20189;-69
2024/03/15 05:27:48;;;;;;;10.18;5.30;;;;;;;8.59;100.00;100325.22;5019053;28;20207;-68
2024/03/15 05:30:18;;;;;;;5.32;4.00;;;;;;;8.47;100.00;100329.53;5016437;28;20239;-70
2024/03/15 05:32:49;;;;;;;7.15;5.63;;;;;;;8.49;100.00;100322.91;5016276;28;20193;-70
2024/03/15 05:35:20;;;;;;;8.98;4.95;;;;;;;8.56;100.00;100333.72;5012732;28;20626;-70
2024/03/15 05:37:49;;;;;;;10.73;6.50;;;;;;;8.67;100.00;100330.41;5004034;28;20670;-71
2024/03/15 05:40:21;;;;;;;8.82;5.65;;;;;;;8.61;100.00;100325.84;5016110;28;20296;-71
2024/03/15 05:42:49;;;;;;;11.77;5.65;;;;;;;8.71;100.00;100337.09;5018235;28;20241;-69
2024/03/15 05:45:20;;;;;;;10.23;5.68;;;;;;;8.68;100.00;100337.47;5031581;28;20259;-70
2024/03/15 05:47:50;;;;;;;7.63;5.88;;;;;;;8.77;100.00;100320.06;5016973;28;20212;-70
2024/03/15 05:50:20;;;;;;;12.70;5.57;;;;;;;8.68;100.00;100321.28;5016462;28;20245;-70
2024/03/15 05:52:48;;;;;;;10.88;4.43;;;;;;;8.71;100.00;100331.69;5016213;28;20268;-70
2024/03/15 05:55:17;;;;;;;14.93;7.97;;;;;;;8.82;100.00;100325.69;5015890;28;20259;-69
2024/03/15 05:57:45;;;;;;;7.13;4.55;;;;;;;8.94;100.00;100329.47;5015213;28;20206;-70
2024/03/15 06:00:19;;;;;;;7.57;3.78;;;;;;;8.86;100.00;100323.44;5016013;28;20600;-70
2024/03/15 06:02:49;;;;;;;10.25;4.13;;;;;;;8.86;100.00;100321.53;5016127;28;20566;-71
2024/03/15 06:05:18;;;;;;;8.40;3.97;;;;;;;9.00;100.00;100328.63;5015406;28;20570;-69
2024/03/15 06:07:47;;;;;;;9.65;6.55;;;;;;;9.12;100.00;100318.88;5014693;28;20199;-71
2024/03/15 06:10:21;;;;;;;10.45;5.30;;;;;;;9.18;100.00;100329.88;5013943;28;20724;-69
2024/03/15 06:12:50;;;;;;;10.45;4.82;;;;;;;9.17;100.00;100329.06;5015894;28;20283;-69
2024/03/15 06:15:21;;;;;;;7.15;5.25;;;;;;;9.35;100.00;100323.88;5019146;28;20240;-70
2024/03/15 06:17:50;;;;;;;10.32;5.68;;;;;;;9.33;100.00;100330.53;5040173;28;20607;-69
2024/03/15 06:20:20;;;;;;;10.33;4.10;;;;;;;9.32;100.00;100324.28;5019964;28;20286;-71
2024/03/15 06:22:50;;;;;;;6.45;4.78;;;;;;;9.53;100.00;100321.38;5018826;28;20460;-70
2024/03/15 06:25:18;;;;;;;8.63;5.83;;;;;;;9.67;100.00;100322.19;5016113;28;20281;-69
2024/03/15 06:27:47;;;;;;;6.43;3.85;;;;;;;9.84;100.00;100328.81;5012947;28;20432;-71
2024/03/15 06:30:17;;;;;;;13.10;5.10;;;;;;;10.04;100.00;100332.28;5017895;28;20217;-72
2024/03/15 06:32:46;;;;;;;14.00;6.67;;;;;;;10.20;100.00;100336.44;5018741;28;20241;-70
2024/03/15 06:35:19;;;;;;;8.73;5.20;;;;;;;10.45;100.00;100331.16;5010918;28;20468;-72
2024/03/15 06:37:53;;;;;;;13.83;7.17;;;;;;;10.56;100.00;100327.75;5019709;28;20491;-70
2024/03/15 06:40:42;;;;;;;7.53;4.57;;;;;;;10.79;100.00;100332.63;5016696;28;20437;-70
2024/03/15 06:43:25;;;;;;;9.43;5.03;;;;;;;10.88;100.00;100344.88;5009206;28;20476;-70
2024/03/15 06:45:57;;;;;;;8.13;5.30;;;;;;;11.03;100.00;100344.56;5011200;28;20478;-70
2024/03/15 06:48:33;;;;;;;7.27;5.70;;;;;;;11.12;100.00;100337.84;5031550;28;20436;-70
2024/03/15 06:53:47;;;;;;;11.10;4.43;;;;;;;11.10;100.00;100329.09;5011386;28;20407;-71
2024/03/15 06:56:16;;;;;;;7.70;5.17;;;;;;;11.33;100.00;100332.88;5022047;28;20407;-71
2024/03/15 06:58:45;;;;;;;8.90;5.00;;;;;;;11.43;100.00;100332.38;5023516;28;20951;-69
2024/03/15 07:01:14;;;;;;;8.20;4.70;;;;;;;11.54;100.00;100337.06;5016396;28;20432;-70
2024/03/15 07:03:43;;;;;;;6.43;3.57;;;;;;;11.68;100.00;100327.78;5017092;28;20468;-70
2024/03/15 07:06:12;;;;;;;8.23;6.93;;;;;;;11.64;100.00;100325.72;5022116;28;20460;-69
2024/03/15 07:08:41;;;;;;;9.30;4.60;;;;;;;11.54;100.00;100330.81;5018399;28;20443;-72
2024/03/15 07:11:12;;;;;;;7.33;4.50;;;;;;;11.79;100.00;100328.97;5018866;28;20424;-70
2024/03/15 07:13:41;;;;;;;5.20;4.00;;;;;;;11.84;100.00;100334.53;5020630;28;20436;-72
2024/03/15 07:16:11;;;;;;;8.50;5.93;;;;;;;11.95;100.00;100333.81;5014165;28;20428;-71
2024/03/15 07:18:40;;;;;;;4.83;4.10;;;;;;;11.89;99.77;100333.88;5014683;28;20431;-71
2024/03/15 07:21:12;;;;;;;9.43;5.57;;;;;;;12.28;97.62;100338.84;5000712;28;20900;-70
2024/03/15 07:23:41;;;;;;;7.83;4.70;;;;;;;12.33;96.09;100349.88;5020517;28;20470;-71
2024/03/15 07:26:10;;;;;;;7.80;4.67;;;;;;;12.48;96.41;100344.88;5018759;28;20511;-71
2024/03/15 07:28:40;;;;;;;10.50;5.90;;;;;;;12.79;94.61;100341.13;5018952;28;20507;-72
2024/03/15 07:31:09;;;;;;;6.37;5.50;;;;;;;12.84;93.27;100343.13;5017840;28;20451;-71
2024/03/15 07:33:38;;;;;;;8.27;4.33;;;;;;;12.98;93.72;100344.59;5009875;28;20406;-71
2024/03/15 07:36:13;;;;;;;13.20;6.40;;;;;;;13.11;91.78;100332.72;5018774;28;20436;-69
2024/03/15 07:38:42;;;;;;;6.77;4.43;;;;;;;12.91;92.08;100341.16;5019701;28;20814;-71
2024/03/15 07:41:11;;;;;;;7.90;6.40;;;;;;;12.93;92.17;100341.75;5004363;28;20438;-73
2024/03/15 07:43:40;;;;;;;10.10;4.30;;;;;;;12.86;92.00;100339.16;5017708;28;20467;-72
2024/03/15 07:46:09;;;;;;;5.77;4.90;;;;;;;12.86;92.93;100327.47;5034121;28;20410;-69
2024/03/15 07:48:38;;;;;;;6.00;4.47;;;;;;;12.93;92.34;100333.59;5017606;28;20519;-73
2024/03/15 07:51:07;;;;;;;8.83;6.70;;;;;;;12.82;92.68;100337.97;5031259;28;20941;-70
2024/03/15 07:53:37;;;;;;;8.20;4.13;;;;;;;13.04;92.50;100327.38;4996538;28;20422;-71
2024/03/15 07:56:09;;;;;;;8.80;4.73;;;;;;;13.27;90.86;100326.63;5019796;28;20484;-70
2024/03/15 07:58:38;;;;;;;7.00;3.83;;;;;;;13.42;89.30;100319.69;5031918;28;20453;-71
2024/03/15 08:01:08;;;;;;;7.37;4.80;;;;;;;13.27;89.45;100332.06;5012840;28;20461;-71
2024/03/15 08:03:38;;;;;;;7.27;5.50;;;;;;;13.37;89.77;100330.44;5015487;28;20455;-70
2024/03/15 08:06:07;;;;;;;6.60;4.37;;;;;;;13.46;88.14;100325.50;5017039;28;20769;-70
2024/03/15 08:08:36;;;;;;;6.10;4.53;;;;;;;13.19;90.03;100319.66;5009998;28;20792;-69
2024/03/15 08:11:05;;;;;;;7.43;3.97;;;;;;;13.40;89.52;100326.44;5011165;28;20501;-70
2024/03/15 08:13:38;;;;;;;6.20;4.70;;;;;;;13.66;88.21;100320.53;4997620;28;20426;-69
2024/03/15 08:16:19;;;;;;;7.77;5.17;;;;;;;13.87;86.97;100325.41;5008106;28;20410;-70
2024/03/15 08:18:48;;;;;;;5.90;5.10;;;;;;;13.95;85.80;100324.19;5013638;28;20429;-70
2024/03/15 08:21:19;;;;;;;7.03;4.90;;;;;;;14.31;85.12;100323.91;5016839;28;20848;-71
2024/03/15 08:23:48;;;;;;;11.57;5.47;;;;;;;14.53;83.35;100328.72;5019123;28;20457;-72
2024/03/15 08:26:20;;;;;;;8.43;5.60;;;;;;;14.65;82.66;100324.09;5015596;28;20418;-71
2024/03/15 08:28:50;;;;;;;5.50;4.37;;;;;;;14.92;80.81;100325.13;5015593;28;20424;-70
2024/03/15 08:31:19;;;;;;;9.30;4.43;;;;;;;14.86;80.22;100330.75;5021540;28;20435;-71
2024/03/15 08:33:48;;;;;;;6.73;4.60;;;;;;;14.77;80.45;100330.28;5020523;28;20413;-69
2024/03/15 08:36:17;;;;;;;6.37;4.10;;;;;;;14.58;81.87;100318.78;5031075;28;20445;-70
2024/03/15 08:38:48;;;;;;;7.70;5.70;;;;;;;14.62;81.46;100321.84;5014997;28;20454;-70
2024/03/15 08:41:17;;;;;;;10.73;4.43;;;;;;;14.48;81.84;100324.00;5032158;28;20478;-70
2024/03/15 08:43:46;;;;;;;7.10;4.70;;;;;;;14.25;82.64;100314.00;5016138;28;20674;-72
2024/03/15 08:46:15;;;;;;;6.20;4.47;;;;;;;14.28;83.22;100321.66;5032709;28;20955;-71
2024/03/15 08:48:44;;;;;;;7.30;4.13;;;;;;;14.49;82.18;100305.78;5015421;28;20418;-71
2024/03/15 08:51:13;;;;;;;8.10;4.13;;;;;;;14.76;82.11;100315.03;5017903;28;20906;-70
2024/03/15 08:53:42;;;;;;;6.30;4.83;;;;;;;15.09;79.63;100315.13;5007807;28;20420;-71
2024/03/15 08:56:11;;;;;;;8.80;4.50;;;;;;;15.38;78.09;100323.22;5016449;28;20482;-71
2024/03/15 08:58:40;;;;;;;7.30;5.23;;;;;;;15.25;78.10;100316.19;5016319;28;20439;-70
2024/03/15 09:01:10;;;;;;;6.27;4.43;;;;;;;15.35;77.59;100323.69;5024120;28;20454;-70
2024/03/15 09:03:40;;;;;;;5.30;3.70;;;;;;;15.20;78.43;100327.03;5019072;28;20497;-70
2024/03/15 09:06:12;;;;;;;6.87;5.70;;;;;;;14.96;79.10;100325.50;5015098;28;20410;-70
2024/03/15 09:08:42;;;;;;;5.83;4.20;;;;;;;15.03;78.85;100321.53;5031565;28;20479;-71
2024/03/15 09:11:13;;;;;;;9.87;4.97;;;;;;;14.91;79.57;100312.56;5012777;28;20456;-72
2024/03/15 09:13:42;;;;;;;6.37;3.50;;;;;;;14.89;79.65;100320.19;5022834;28;20443;-71
2024/03/15 09:16:17;;;;;;;5.63;4.70;;;;;;;15.13;78.71;100320.91;5016654;28;20957;-70
2024/03/15 09:18:46;;;;;;;4.37;3.97;;;;;;;15.06;79.29;100321.03;5014450;28;20442;-71
2024/03/15 09:21:19;;;;;;;8.27;4.10;;;;;;;15.59;77.55;100326.06;5015828;28;20435;-71
2024/03/15 09:23:48;;;;;;;9.03;5.97;;;;;;;15.96;74.90;100337.28;5014696;28;20813;-71
2024/03/15 09:26:20;;;;;;;9.10;6.00;;;;;;;16.05;74.47;100324.84;5013198;28;20428;-70
2024/03/15 09:28:49;;;;;;;9.30;4.43;;;;;;;16.02;73.47;100336.25;5026002;28;20403;-71
2024/03/15 09:31:19;;;;;;;7.40;5.60;;;;;;;15.90;74.15;100338.28;5016027;28;20449;-68
2024/03/15 09:34:10;;;;;;;8.20;4.30;;;;;;;16.09;73.06;100336.06;5017336;28;20412;-71
2024/03/15 09:36:40;;;;;;;6.57;4.33;;;;;;;15.89;73.48;100331.16;5017187;28;20424;-72
2024/03/15 09:39:13;;;;;;;8.50;5.47;;;;;;;15.44;75.62;100338.59;5012668;28;20456;-72
2024/03/15 09:41:42;;;;;;;5.83;4.10;;;;;;;15.73;75.32;100337.47;5016601;28;20399;-71
2024/03/15 09:44:13;;;;;;;6.83;5.07;;;;;;;15.91;74.56;100339.09;5014662;28;20884;-72
2024/03/15 09:46:43;;;;;;;4.80;3.77;;;;;;;15.78;74.32;100328.53;4998548;28;20488;-71
2024/03/15 09:49:12;;;;;;;6.47;3.60;;;;;;;15.66;75.27;100334.06;5022861;28;21365;-72
2024/03/15 09:51:41;;;;;;;6.13;4.90;;;;;;;15.63;75.40;100331.84;5033881;28;20423;-71
2024/03/15 09:54:10;;;;;;;7.33;6.20;;;;;;;15.52;75.71;100327.31;5016206;28;20404;-69
2024/03/15 09:56:40;;;;;;;4.87;3.73;;;;;;;15.68;75.48;100328.38;5024488;28;20414;-69
2024/03/15 09:59:09;;;;;;;8.03;4.53;;;;;;;15.73;75.11;100329.28;5013655;28;20479;-68
2024/03/15 10:01:38;;;;;;;4.00;3.60;;;;;;;15.80;74.70;100327.19;5019134;28;20853;-68
2024/03/15 10:04:07;;;;;;;6.03;5.00;;;;;;;15.65;75.15;100325.06;5017457;28;20476;-69
2024/03/15 10:06:36;;;;;;;5.23;3.87;;;;;;;15.66;75.44;100320.44;5016864;28;20486;-69
2024/03/15 10:09:05;;;;;;;3.83;3.40;;;;;;;15.81;75.07;100317.13;5018165;28;20861;-70
2024/03/15 10:11:34;;;;;;;4.20;3.27;;;;;;;16.14;73.34;100316.22;5017487;28;20398;-69
2024/03/15 10:14:03;;;;;;;6.60;4.63;;;;;;;16.31;72.37;100311.53;5020210;28;20431;-70
2024/03/15 10:16:37;;;;;;;4.20;3.90;;;;;;;16.71;71.40;100314.78;5018733;28;20394;-70
2024/03/15 10:19:07;;;;;;;8.20;3.57;;;;;;;16.89;69.78;100308.94;4995604;28;20446;-70
2024/03/15 10:21:36;;;;;;;6.20;5.37;;;;;;;16.83;69.63;100310.00;5016584;28;20433;-70
2024/03/15 10:24:05;;;;;;;3.63;2.40;;;;;;;17.04;69.28;100304.75;5014715;28;20399;-71
2024/03/15 10:26:40;;;;;;;3.40;2.60;;;;;;;17.18;68.29;100303.22;5007064;28;20529;-71
2024/03/15 10:29:11;;;;;;;6.60;4.20;;;;;;;17.07;69.31;100309.69;5009616;28;20846;-71
2024/03/15 10:31:41;;;;;;;4.10;3.00;;;;;;;17.23;68.54;100308.75;5016448;28;20411;-70
2024/03/15 10:34:10;;;;;;;4.60;4.17;;;;;;;17.20;69.12;100303.78;5015163;28;20409;-71
2024/03/15 10:36:39;;;;;;;8.57;3.67;;;;;;;16.91;69.22;100301.31;5015782;28;20396;-71
2024/03/15 10:39:11;;;;;;;7.70;5.30;;;;;;;16.94;69.58;100306.25;5017639;28;20447;-71
2024/03/15 10:41:42;;;;;;;4.13;3.37;;;;;;;16.92;70.13;100299.41;5014890;28;20432;-70
2024/03/15 10:44:12;;;;;;;7.70;4.43;;;;;;;17.00;69.13;100303.59;5015174;28;20415;-71
2024/03/15 10:46:42;;;;;;;6.50;3.47;;;;;;;16.74;69.73;100297.88;4978988;28;20218;-70
2024/03/15 10:49:13;;;;;;;4.13;3.50;;;;;;;16.59;70.44;100303.19;5011518;28;20448;-71
2024/03/15 10:51:42;;;;;;;4.93;3.60;;;;;;;16.71;70.61;100306.56;5013624;28;20416;-70
2024/03/15 10:54:11;;;;;;;8.20;4.87;;;;;;;16.81;70.83;100306.69;5033036;28;20414;-71
2024/03/15 10:57:10;;;;;;;3.77;3.33;;;;;;;16.93;69.97;100301.06;5027848;28;20787;-70
2024/03/15 10:59:41;;;;;;;4.80;3.60;;;;;;;16.89;70.14;100298.00;5024174;28;20798;-69
2024/03/15 11:02:10;;;;;;;3.87;2.83;;;;;;;17.07;70.00;100291.38;4995080;28;20404;-70
2024/03/15 11:04:39;;;;;;;4.07;3.43;;;;;;;16.99;69.86;100299.22;4991915;28;20972;-71
2024/03/15 11:07:08;;;;;;;7.20;3.60;;;;;;;17.07;68.83;100294.09;5016285;28;20396;-70
2024/03/15 11:09:37;;;;;;;20.53;5.00;;;;;;;17.14;68.77;100291.97;4985422;28;20427;-72
2024/03/15 11:12:06;;;;;;;6.80;4.70;;;;;;;17.50;67.10;100293.09;5027397;28;20439;-71
2024/03/15 11:14:36;;;;;;;4.80;4.00;;;;;;;17.80;66.34;100295.25;4995064;28;20400;-71
2024/03/15 11:17:06;;;;;;;4.47;4.07;;;;;;;17.76;66.32;100297.72;5010675;28;20417;-69
2024/03/15 11:19:42;;;;;;;3.10;2.47;;;;;;;17.87;65.95;100292.28;4993350;28;20449;-71
2024/03/15 11:22:19;;;;;;;4.00;3.57;;;;;;;17.62;66.45;100296.50;5010718;28;20411;-72
2024/03/15 11:24:49;;;;;;;5.90;3.77;;;;;;;17.91;64.78;100287.94;4994440;28;20436;-71
2024/03/15 11:27:19;;;;;;;7.47;3.50;;;;;;;18.08;63.57;100294.88;5020610;28;20786;-69
2024/03/15 11:29:55;;;;;;;5.80;3.97;;;;;;;18.23;63.56;100291.38;4993365;28;20464;-68
2024/03/15 11:32:25;;;;;;;6.20;3.65;;;;;;;18.37;62.72;100289.81;5014449;28;20414;-70
2024/03/15 11:34:54;;;;;;;6.93;3.23;;;;;;;18.21;63.23;100279.84;5021199;28;20712;-70
2024/03/15 11:37:23;;;;;;;3.87;2.80;;;;;;;18.27;62.72;100286.19;4996205;28;20416;-71
2024/03/15 11:39:59;;;;;;;5.77;3.70;;;;;;;18.52;62.32;100289.88;5025175;28;20466;-70